This is the latest recevied weather packets stored in our database for station/object KC7KGF. If no packets are shown the sender has not sent any weather packets the latest 1 day(s).
| Time | Temp. | Humidity | Pressure | Rain* | Wind** | Luminosity | Snow |
|---|---|---|---|---|---|---|---|
| 1778020538 | 13.89° C | 54% | 1013.8 hPa | 0 mm | 4.02 m/s, 239° | - | - |
| 1778018727 | 15° C | 54% | 1014 hPa | 0.25 mm | 5.36 m/s, 199° | - | - |
| 1778016931 | 13.33° C | 66% | 1014.2 hPa | 0.25 mm | 3.58 m/s, 220° | - | - |
| 1778015129 | 12.22° C | 68% | 1014.9 hPa | 0.25 mm | 2.68 m/s, 284° | - | - |
| 1778013335 | 14.44° C | 62% | 1014.8 hPa | 0.25 mm | 4.47 m/s, 199° | - | - |
| 1778011540 | 11.67° C | 83% | 1015.1 hPa | 0 mm | 2.68 m/s, 221° | - | - |
| 1778009737 | 12.78° C | 71% | 1015.3 hPa | 0 mm | 3.58 m/s, 233° | - | - |
| 1778007936 | 13.33° C | 69% | 1015.4 hPa | 0 mm | 3.58 m/s, 219° | - | - |
| 1778006142 | 13.33° C | 70% | 1015.1 hPa | 0 mm | 2.24 m/s, 192° | - | - |
| 1778004328 | 12.22° C | 80% | 1015.3 hPa | 0.76 mm | 2.24 m/s, 214° | - | - |
| 1778002543 | 10.56° C | 87% | 1015.8 hPa | 0.76 mm | 2.68 m/s, 218° | - | - |
| 1778000732 | 11.11° C | 87% | 1015.9 hPa | 1.52 mm | 0.89 m/s, 263° | - | - |
| 1777998931 | 10° C | 87% | 1015.9 hPa | 1.52 mm | 1.34 m/s, 253° | - | - |
| 1777997141 | 10.56° C | 80% | 1015.6 hPa | 0 mm | 0.89 m/s, 192° | - | - |
| 1777995339 | 10.56° C | 78% | 1015.2 hPa | 0 mm | 0.45 m/s, 197° | - | - |
| 1777993530 | 10° C | 78% | 1015.4 hPa | 0 mm | 0 m/s | - | - |
| 1777991737 | 9.44° C | 81% | 1015.5 hPa | 0 mm | 0 m/s | - | - |
| 1777989940 | 8.89° C | 82% | 1015.6 hPa | 0 mm | 0.89 m/s, 190° | - | - |
| 1777988126 | 8.89° C | 84% | 1015.2 hPa | 0 mm | 0 m/s | - | - |
| 1777986326 | 8.33° C | 84% | 1014.8 hPa | 0 mm | 0 m/s | - | - |
| 1777984534 | 8.89° C | 84% | 1014.5 hPa | 0 mm | 0 m/s | - | - |
| 1777982734 | 8.33° C | 84% | 1014.7 hPa | 0 mm | 0 m/s | - | - |
| 1777980940 | 8.33° C | 84% | 1015.3 hPa | 0 mm | 0 m/s | - | - |
| 1777979143 | 8.89° C | 83% | 1015.2 hPa | 0 mm | 0 m/s | - | - |
* Rain latest hour (hover to see other rain measurements)
** Current wind speed in m/s (hover to see current wind gust speed)